»·PEaware :: SWA1695 KPHX-KLAS

SWA1695 :: KPHX-KLAS

FLIGHT INFORMATION

Flight Status: Arrived
Operator:
Southwest Airlines
More flights by this operator :: More flights under this callsign
Pilot: Ben F. (2808)
Aircraft: BOEING 737-300
(B733)
More flights by this aircraft type
Origin: KPHX Phoenix Sky Harbor Intl
United States
Destination: KLAS McCarran Intl
United States
More flights between these airports :: More routes between these airports
Route: +MAYSA5 SISIE IGM TYSSN5
File this flight plan on PilotEdge
Remarks: PBN / A1B3B4B5D3D4 NAV / RNVD1E2A1 REG / N372SB EET / KZLA0020 RMK / SIMBRIEF
Altitude:
(Current/Filed)
28,000ft
Speed:
(Current/Filed)
418kts
Departed: 29-Sep-17 06:02 PM
Arrived: 29-Sep-17 06:48 PM
Distance/Time
Traveled:
221nm/0:46
Distance/Time
To Go:
Arrived

Flight Plot

Page will automatically refresh every two minutes.

Flight plan parsing failed; only flown route is shown


Map Options




Map Legend


Flown Route
Filed Route
Departure Airport
Arrival Airport
Navaid (VOR, NDB)
Fix

Horizontal Profiles

Position Reports

Time Latitude Longitude Heading Altitude Ground
Speed
29-Sep-17 17:52 33.434068 -111.996235 285 1141ft 0kts
29-Sep-17 17:53 33.434068 -111.996235 285 1141ft 0kts
29-Sep-17 17:54 33.434068 -111.996235 285 1141ft 0kts
29-Sep-17 17:55 33.434068 -111.996235 285 1141ft 0kts
29-Sep-17 17:56 33.434068 -111.996235 285 1141ft 0kts
29-Sep-17 17:57 33.434068 -111.996235 285 1141ft 0kts
29-Sep-17 17:58 33.434068 -111.996235 285 1141ft 0kts
29-Sep-17 17:59 33.434066 -111.996227 285 1141ft 1kts
29-Sep-17 18:00 33.434177 -111.995762 197 1141ft 1kts
29-Sep-17 18:01 33.434312 -111.995748 179 1141ft 0kts
29-Sep-17 18:02 33.434312 -111.995748 179 1141ft 0kts
29-Sep-17 18:03 33.433256 -111.995745 175 1141ft 6kts
29-Sep-17 18:04 33.431946 -111.993439 178 1141ft 0kts
29-Sep-17 18:05 33.431926 -111.993438 178 1141ft 1kts
29-Sep-17 18:06 33.431049 -112.001893 269 1141ft 102kts
29-Sep-17 18:07 33.430948 -112.053618 279 2439ft 168kts
29-Sep-17 18:08 33.465476 -112.104054 317 4572ft 188kts
29-Sep-17 18:09 33.501403 -112.142937 318 5743ft 237kts
29-Sep-17 18:10 33.564007 -112.184177 343 7691ft 279kts
29-Sep-17 18:11 33.640775 -112.208903 343 10177ft 298kts
29-Sep-17 18:12 33.727054 -112.236743 343 12034ft 341kts
29-Sep-17 18:13 33.821756 -112.267347 343 14171ft 364kts
29-Sep-17 18:14 33.919727 -112.299085 343 16604ft 374kts
29-Sep-17 18:15 34.020439 -112.332604 335 18762ft 384kts
29-Sep-17 18:16 34.102999 -112.409922 318 20839ft 388kts
29-Sep-17 18:17 34.183507 -112.490751 319 21111ft 379kts
29-Sep-17 18:18 34.263930 -112.571784 319 21103ft 378kts
29-Sep-17 18:19 34.343217 -112.651887 319 21103ft 378kts
29-Sep-17 18:20 34.423539 -112.733479 319 22852ft 385kts
29-Sep-17 18:21 34.506310 -112.817552 319 24714ft 393kts
29-Sep-17 18:22 34.589816 -112.904354 317 26354ft 401kts
29-Sep-17 18:23 34.672826 -112.995340 317 27912ft 409kts
29-Sep-17 18:24 34.755522 -113.085719 317 28106ft 397kts
29-Sep-17 18:25 34.836923 -113.174919 317 28104ft 398kts
29-Sep-17 18:26 34.918441 -113.264492 317 28032ft 398kts
29-Sep-17 18:27 34.995920 -113.358543 300 28029ft 398kts
29-Sep-17 18:28 35.049282 -113.476443 300 28023ft 399kts
29-Sep-17 18:29 35.103052 -113.592254 300 28017ft 399kts
29-Sep-17 18:30 35.153420 -113.700574 300 27241ft 402kts
29-Sep-17 18:31 35.206028 -113.814536 300 25289ft 385kts
29-Sep-17 18:32 35.257194 -113.924686 305 23296ft 372kts
29-Sep-17 18:33 35.301477 -113.972507 322 22148ft 369kts
29-Sep-17 18:34 35.352002 -114.019026 322 20904ft 363kts
29-Sep-17 18:35 35.401349 -114.064832 322 19669ft 358kts
29-Sep-17 18:36 35.479620 -114.137766 322 17690ft 357kts
29-Sep-17 18:37 35.556110 -114.209042 322 15894ft 342kts
29-Sep-17 18:38 35.630636 -114.278579 322 14202ft 330kts
29-Sep-17 18:39 35.701285 -114.344635 322 12500ft 312kts
29-Sep-17 18:40 35.771247 -114.397037 338 11986ft 295kts
29-Sep-17 18:41 35.847655 -114.432621 338 12004ft 295kts
29-Sep-17 18:42 35.921050 -114.466951 338 11931ft 274kts
29-Sep-17 18:43 35.976423 -114.524313 289 10077ft 277kts
29-Sep-17 18:44 35.997331 -114.615451 286 8342ft 276kts
29-Sep-17 18:45 36.016264 -114.695975 285 7951ft 240kts
29-Sep-17 18:46 36.034936 -114.776050 286 7350ft 242kts
29-Sep-17 18:47 36.051678 -114.847966 286 6352ft 240kts
29-Sep-17 18:48 36.069638 -114.925276 285 5283ft 224kts
29-Sep-17 18:49 36.073721 -114.996092 269 4294ft 192kts
29-Sep-17 18:50 36.073628 -115.055960 270 3339ft 163kts
29-Sep-17 18:51 36.073707 -115.109644 270 2479ft 156kts
29-Sep-17 18:52 36.074624 -115.145857 297 2188ft 22kts
29-Sep-17 18:53 36.078942 -115.146119 28 2187ft 11kts

Navigation Log

Ident Type
Flight plan parsing failed, navigation log unavailable